createdAt,value
2022-09-01T00:01:54.825Z,16.95
2022-09-01T00:04:27.362Z,16.79
2022-09-01T00:06:56.415Z,16.66
2022-09-01T00:09:24.979Z,16.84
2022-09-01T00:11:55.992Z,16.62
2022-09-01T00:14:30.691Z,16.59
2022-09-01T00:16:59.956Z,16.77
2022-09-01T00:19:29.721Z,16.58
2022-09-01T00:21:58.463Z,16.84
2022-09-01T00:24:27.147Z,16.58
2022-09-01T00:26:57.382Z,16.75
2022-09-01T00:29:26.669Z,16.67
2022-09-01T00:31:54.957Z,16.70
2022-09-01T00:34:23.243Z,16.75
2022-09-01T00:36:51.672Z,16.81
2022-09-01T00:39:19.655Z,16.76
2022-09-01T00:41:50.409Z,16.71
2022-09-01T00:44:24.762Z,16.74
2022-09-01T00:46:55.162Z,16.37
2022-09-01T00:49:31.360Z,16.37
2022-09-01T00:52:04.676Z,16.56
2022-09-01T00:54:35.033Z,16.41
2022-09-01T00:57:04.353Z,16.56
2022-09-01T00:59:34.160Z,16.37
2022-09-01T01:02:02.109Z,16.43
2022-09-01T01:04:30.320Z,16.48
2022-09-01T01:07:02.349Z,16.29
2022-09-01T01:09:34.035Z,16.33
2022-09-01T01:12:04.429Z,16.34
2022-09-01T01:14:37.046Z,16.11
2022-09-01T01:17:05.556Z,16.18
2022-09-01T01:19:59.814Z,16.07
2022-09-01T01:23:07.977Z,16.24
2022-09-01T01:25:40.601Z,16.06
2022-09-01T01:28:11.989Z,15.95
2022-09-01T01:30:43.018Z,15.91
2022-09-01T01:33:11.591Z,15.81
2022-09-01T01:35:40.074Z,15.70
2022-09-01T01:38:08.830Z,15.77
2022-09-01T01:40:39.039Z,15.83
2022-09-01T01:43:07.568Z,15.83
2022-09-01T01:45:36.363Z,15.96
2022-09-01T01:48:10.776Z,15.87
2022-09-01T01:50:38.932Z,15.95
2022-09-01T01:53:11.350Z,15.65
2022-09-01T01:55:42.027Z,15.71
2022-09-01T01:58:12.134Z,15.64
2022-09-01T02:00:43.122Z,15.61
2022-09-01T02:03:12.838Z,15.28
2022-09-01T02:05:41.239Z,15.27
2022-09-01T02:08:11.360Z,15.04
2022-09-01T02:10:45.981Z,15.05
2022-09-01T02:13:16.885Z,15.20
2022-09-01T02:15:46.850Z,15.38
2022-09-01T02:18:18.227Z,15.30
2022-09-01T02:20:47.796Z,15.04
2022-09-01T02:23:18.062Z,15.29
2022-09-01T02:26:14.474Z,15.40
2022-09-01T02:28:40.074Z,15.17
2022-09-01T02:31:09.125Z,15.18
2022-09-01T02:33:38.163Z,14.77
2022-09-01T02:36:09.036Z,15.03
2022-09-01T02:38:38.861Z,15.16
2022-09-01T02:41:08.361Z,14.96
2022-09-01T02:43:36.344Z,15.04
2022-09-01T02:46:06.392Z,14.86
2022-09-01T02:48:37.337Z,14.90
2022-09-01T02:51:08.486Z,14.89
2022-09-01T02:53:37.127Z,14.91
2022-09-01T02:56:09.736Z,14.87
2022-09-01T02:58:46.317Z,15.05
2022-09-01T03:01:17.251Z,14.85
2022-09-01T03:03:45.328Z,14.67
2022-09-01T03:06:14.765Z,14.68
2022-09-01T03:08:42.844Z,14.67
2022-09-01T03:11:13.337Z,14.70
2022-09-01T03:13:44.688Z,14.59
2022-09-01T03:16:12.832Z,14.70
2022-09-01T03:18:41.070Z,14.76
2022-09-01T03:21:10.136Z,14.80
2022-09-01T03:23:38.196Z,14.56
2022-09-01T03:26:06.429Z,14.69
2022-09-01T03:28:34.401Z,14.54
2022-09-01T03:31:03.721Z,14.65
2022-09-01T03:33:32.572Z,14.66
2022-09-01T03:36:00.580Z,14.24
2022-09-01T03:38:28.928Z,14.28
2022-09-01T03:41:02.114Z,14.34
2022-09-01T03:43:35.279Z,14.63
2022-09-01T03:46:05.705Z,14.30
2022-09-01T03:48:33.856Z,13.94
2022-09-01T03:51:02.831Z,14.30
2022-09-01T03:53:33.737Z,14.25
2022-09-01T03:56:04.231Z,14.28
2022-09-01T03:58:32.439Z,14.27
2022-09-01T04:01:02.998Z,13.98
2022-09-01T04:03:36.176Z,14.03
2022-09-01T04:06:04.512Z,14.19
2022-09-01T04:08:33.176Z,14.10
2022-09-01T04:11:03.947Z,13.80
2022-09-01T04:13:34.024Z,13.58
2022-09-01T04:16:02.154Z,13.67
2022-09-01T04:18:30.331Z,13.62
2022-09-01T04:21:00.654Z,13.69
2022-09-01T04:23:30.906Z,13.68
2022-09-01T04:26:09.120Z,13.59
2022-09-01T04:28:41.139Z,13.74
2022-09-01T04:31:17.706Z,13.66
2022-09-01T04:33:47.515Z,13.70
2022-09-01T04:36:19.668Z,13.64
2022-09-01T04:38:48.225Z,13.81
2022-09-01T04:41:17.811Z,13.78
2022-09-01T04:43:47.432Z,13.62
2022-09-01T04:46:15.693Z,13.88
2022-09-01T04:48:45.997Z,13.81
2022-09-01T04:51:15.555Z,13.61
2022-09-01T04:53:48.860Z,13.51
2022-09-01T04:56:19.737Z,13.27
2022-09-01T04:58:47.968Z,13.25
2022-09-01T05:01:17.451Z,13.50
2022-09-01T05:03:46.183Z,13.38
2022-09-01T05:06:15.731Z,13.17
2022-09-01T05:08:45.823Z,13.27
2022-09-01T05:11:17.878Z,12.85
2022-09-01T05:13:46.779Z,13.10
2022-09-01T05:16:24.061Z,13.00
2022-09-01T05:18:57.253Z,13.21
2022-09-01T05:21:28.375Z,13.36
2022-09-01T05:24:01.468Z,13.40
2022-09-01T05:26:31.747Z,13.41
2022-09-01T05:29:01.608Z,13.41
2022-09-01T05:31:34.935Z,13.48
2022-09-01T05:34:03.489Z,13.48
2022-09-01T05:36:33.800Z,13.68
2022-09-01T05:39:04.399Z,13.68
2022-09-01T05:41:34.581Z,13.66
2022-09-01T05:44:03.656Z,13.75
2022-09-01T05:46:31.708Z,13.81
2022-09-01T05:49:00.047Z,13.92
2022-09-01T05:51:50.528Z,14.03
2022-09-01T05:54:23.267Z,14.08
2022-09-01T05:56:53.668Z,14.22
2022-09-01T05:59:24.969Z,14.28
2022-09-01T06:01:54.637Z,14.29
2022-09-01T06:04:24.804Z,14.37
2022-09-01T06:07:10.298Z,14.36
2022-09-01T06:09:43.112Z,14.35
2022-09-01T06:12:17.847Z,14.37
2022-09-01T06:14:47.421Z,14.50
2022-09-01T06:17:16.519Z,14.58
2022-09-01T06:19:45.068Z,14.58
2022-09-01T06:22:13.345Z,14.72
2022-09-01T06:24:43.860Z,14.84
2022-09-01T06:27:13.665Z,14.94
2022-09-01T06:29:41.758Z,15.11
2022-09-01T06:32:12.544Z,15.29
2022-09-01T06:34:42.751Z,15.41
2022-09-01T06:37:11.207Z,15.63
2022-09-01T06:39:39.201Z,15.66
2022-09-01T06:42:09.635Z,15.70
2022-09-01T06:44:42.011Z,15.88
2022-09-01T06:47:10.028Z,15.99
2022-09-01T06:49:40.149Z,15.99
2022-09-01T06:52:08.583Z,16.12
2022-09-01T06:54:39.303Z,16.34
2022-09-01T06:59:56.718Z,16.47
2022-09-01T07:02:26.907Z,16.63
2022-09-01T07:04:55.378Z,16.55
2022-09-01T07:10:20.948Z,16.65
2022-09-01T07:13:07.566Z,16.99
2022-09-01T07:18:29.192Z,16.94
2022-09-01T07:24:07.913Z,17.26
2022-09-01T07:26:35.814Z,17.48
2022-09-01T07:29:07.200Z,17.42
2022-09-01T07:34:46.272Z,17.62
2022-09-01T07:38:46.932Z,17.90
2022-09-01T07:43:12.829Z,18.00
2022-09-01T07:45:58.343Z,18.11
2022-09-01T07:51:36.944Z,18.14
2022-09-01T07:54:06.013Z,18.12
2022-09-01T07:56:39.480Z,18.29
2022-09-01T07:59:14.839Z,18.50
2022-09-01T08:01:45.299Z,18.52
2022-09-01T08:04:13.362Z,18.51
2022-09-01T08:06:42.743Z,18.53
2022-09-01T08:09:27.291Z,18.76
2022-09-01T08:12:02.031Z,18.84
2022-09-01T08:14:33.848Z,18.99
2022-09-01T08:19:53.606Z,18.92
2022-09-01T08:22:24.277Z,19.04
2022-09-01T08:24:52.849Z,19.16
2022-09-01T08:27:21.531Z,19.27
2022-09-01T08:29:50.169Z,19.31
2022-09-01T08:32:20.617Z,19.44
2022-09-01T08:34:48.666Z,19.52
2022-09-01T08:37:16.655Z,19.59
2022-09-01T08:39:48.581Z,19.71
2022-09-01T08:42:25.237Z,19.76
2022-09-01T08:45:03.838Z,19.83
2022-09-01T08:47:50.457Z,19.96
2022-09-01T08:50:22.016Z,20.04
2022-09-01T08:52:54.565Z,19.88
2022-09-01T08:55:27.371Z,20.29
2022-09-01T08:57:59.811Z,20.34
2022-09-01T09:00:30.321Z,20.33
2022-09-01T09:03:12.465Z,20.45
2022-09-01T09:05:51.083Z,20.65
2022-09-01T09:08:33.378Z,20.74
2022-09-01T09:11:03.904Z,20.89
2022-09-01T09:13:39.933Z,21.07
2022-09-01T09:16:12.440Z,21.12
2022-09-01T09:19:01.076Z,21.43
2022-09-01T09:21:34.064Z,21.51
2022-09-01T09:24:11.642Z,21.97
2022-09-01T09:26:42.930Z,22.11
2022-09-01T09:29:11.616Z,22.08
2022-09-01T09:31:45.903Z,22.25
2022-09-01T09:34:20.945Z,22.14
2022-09-01T09:36:54.665Z,22.42
2022-09-01T09:39:26.862Z,22.85
2022-09-01T09:42:09.497Z,22.83
2022-09-01T09:44:44.385Z,22.67
2022-09-01T09:47:40.368Z,23.03
2022-09-01T09:50:20.074Z,23.27
2022-09-01T09:52:48.789Z,23.45
2022-09-01T09:55:24.618Z,23.02
2022-09-01T09:57:58.144Z,23.24
2022-09-01T10:00:28.343Z,23.37
2022-09-01T10:02:59.857Z,23.55
2022-09-01T10:05:38.130Z,23.62
2022-09-01T10:08:07.263Z,23.64
2022-09-01T10:10:40.815Z,24.13
2022-09-01T10:13:13.809Z,23.55
2022-09-01T10:15:42.947Z,23.78
2022-09-01T10:18:21.061Z,24.23
2022-09-01T10:20:56.420Z,23.77
2022-09-01T10:23:31.086Z,24.18
2022-09-01T10:26:06.023Z,24.04
2022-09-01T10:28:35.684Z,24.58
2022-09-01T10:31:05.301Z,24.48
2022-09-01T10:33:37.020Z,24.47
2022-09-01T10:36:08.004Z,24.69
2022-09-01T10:38:36.305Z,24.50
2022-09-01T10:41:14.704Z,24.54
2022-09-01T10:43:45.269Z,24.48
2022-09-01T10:46:50.721Z,24.16
2022-09-01T10:49:50.427Z,25.03
2022-09-01T10:52:56.174Z,25.14
2022-09-01T10:55:32.369Z,24.15
2022-09-01T11:01:13.375Z,24.84
2022-09-01T11:04:00.730Z,25.15
2022-09-01T11:07:17.210Z,25.14
2022-09-01T11:10:34.817Z,25.47
2022-09-01T11:13:31.706Z,25.30
2022-09-01T11:19:37.621Z,25.54
2022-09-01T11:22:16.767Z,25.31
2022-09-01T11:25:22.460Z,25.26
2022-09-01T11:27:59.682Z,25.61
2022-09-01T11:30:38.171Z,24.17
2022-09-01T11:33:14.307Z,25.54
2022-09-01T11:35:44.117Z,25.83
2022-09-01T11:38:14.295Z,25.22
2022-09-01T11:40:43.274Z,25.76
2022-09-01T11:43:13.756Z,25.95
2022-09-01T11:45:56.858Z,26.23
2022-09-01T11:48:25.806Z,26.08
2022-09-01T11:50:59.810Z,26.35
2022-09-01T11:53:28.491Z,26.26
2022-09-01T11:55:58.294Z,26.38
2022-09-01T11:58:39.409Z,26.41
2022-09-01T12:01:18.770Z,26.35
2022-09-01T12:03:48.662Z,26.14
2022-09-01T12:06:22.512Z,26.20
2022-09-01T12:08:56.759Z,26.33
2022-09-01T12:11:30.414Z,26.43
2022-09-01T12:14:01.023Z,26.24
2022-09-01T12:16:32.663Z,26.67
2022-09-01T12:19:00.673Z,26.41
2022-09-01T12:21:30.524Z,26.74
2022-09-01T12:24:15.403Z,26.68
2022-09-01T12:26:44.895Z,27.05
2022-09-01T12:29:14.249Z,27.56
2022-09-01T12:31:45.905Z,27.27
2022-09-01T12:34:26.985Z,27.85
2022-09-01T12:37:11.405Z,26.23
2022-09-01T12:39:41.172Z,26.91
2022-09-01T12:42:12.945Z,26.94
2022-09-01T12:44:51.038Z,26.04
2022-09-01T12:47:54.259Z,26.02
2022-09-01T12:50:44.899Z,27.23
2022-09-01T12:53:32.446Z,27.75
2022-09-01T12:56:19.656Z,28.27
2022-09-01T12:58:52.209Z,28.64
2022-09-01T13:01:29.572Z,28.52
2022-09-01T13:04:25.961Z,28.85
2022-09-01T13:06:54.743Z,28.78
2022-09-01T13:09:22.946Z,26.14
2022-09-01T13:12:07.724Z,28.34
2022-09-01T13:14:36.883Z,27.78
2022-09-01T13:17:06.027Z,28.25
2022-09-01T13:19:43.680Z,28.45
2022-09-01T13:22:12.041Z,28.18
2022-09-01T13:24:40.274Z,27.69
2022-09-01T13:27:23.986Z,27.71
2022-09-01T13:29:52.504Z,27.32
2022-09-01T13:32:22.373Z,27.71
2022-09-01T13:34:54.164Z,27.16
2022-09-01T13:37:22.807Z,27.36
2022-09-01T13:39:51.441Z,26.66
2022-09-01T13:42:19.930Z,26.89
2022-09-01T13:44:49.574Z,28.42
2022-09-01T13:48:15.071Z,28.67
2022-09-01T13:50:14.907Z,29.15
2022-09-01T13:52:45.935Z,29.11
2022-09-01T13:55:25.819Z,29.14
2022-09-01T13:57:55.912Z,29.40
2022-09-01T14:00:25.499Z,28.97
2022-09-01T14:02:55.064Z,28.68
2022-09-01T14:05:26.955Z,29.42
2022-09-01T14:07:58.854Z,30.06
2022-09-01T14:10:27.696Z,29.66
2022-09-01T14:12:55.698Z,29.84
2022-09-01T14:15:27.272Z,29.67
2022-09-01T14:17:57.549Z,30.03
2022-09-01T14:20:33.455Z,30.47
2022-09-01T14:23:06.673Z,30.19
2022-09-01T14:25:35.749Z,30.38
2022-09-01T14:28:04.066Z,30.01
2022-09-01T14:30:33.548Z,30.71
2022-09-01T14:33:02.253Z,30.08
2022-09-01T14:35:33.256Z,29.44
2022-09-01T14:38:02.740Z,29.23
2022-09-01T14:40:30.731Z,28.70
2022-09-01T14:42:58.806Z,28.80
2022-09-01T14:45:28.803Z,28.61
2022-09-01T14:47:58.890Z,28.75
2022-09-01T14:50:27.534Z,28.26
2022-09-01T14:52:57.578Z,28.92
2022-09-01T14:55:26.928Z,29.55
2022-09-01T14:57:55.123Z,29.88
2022-09-01T15:00:26.493Z,30.19
2022-09-01T15:02:55.467Z,29.91
2022-09-01T15:05:24.089Z,29.68
2022-09-01T15:07:52.511Z,30.28
2022-09-01T15:10:24.598Z,30.12
2022-09-01T15:12:54.464Z,29.01
2022-09-01T15:15:22.750Z,28.29
2022-09-01T15:17:50.685Z,27.86
2022-09-01T15:20:35.834Z,27.91
2022-09-01T15:23:04.123Z,27.43
2022-09-01T15:25:33.627Z,26.84
2022-09-01T15:28:01.637Z,26.71
2022-09-01T15:30:29.693Z,27.34
2022-09-01T15:32:57.960Z,27.42
2022-09-01T15:35:25.922Z,27.95
2022-09-01T15:37:53.906Z,28.51
2022-09-01T15:40:22.046Z,29.06
2022-09-01T15:42:51.423Z,28.38
2022-09-01T15:45:22.249Z,27.81
2022-09-01T15:47:50.459Z,27.72
2022-09-01T15:50:21.645Z,27.10
2022-09-01T15:52:52.145Z,27.04
2022-09-01T15:55:21.665Z,27.37
2022-09-01T15:57:51.775Z,27.06
2022-09-01T16:00:20.184Z,26.81
2022-09-01T16:02:48.239Z,26.47
2022-09-01T16:05:17.878Z,26.95
2022-09-01T16:07:45.968Z,26.65
2022-09-01T16:10:14.292Z,26.45
2022-09-01T16:12:44.279Z,26.49
2022-09-01T16:15:16.614Z,26.11
2022-09-01T16:17:58.397Z,27.04
2022-09-01T16:20:28.558Z,28.42
2022-09-01T16:22:58.313Z,28.65
2022-09-01T16:25:35.055Z,29.24
2022-09-01T16:28:06.204Z,29.39
2022-09-01T16:30:35.836Z,29.93
2022-09-01T16:33:20.078Z,29.97
2022-09-01T16:35:59.883Z,29.47
2022-09-01T16:38:36.053Z,30.17
2022-09-01T16:41:10.789Z,30.15
2022-09-01T16:43:43.627Z,29.92
2022-09-01T16:46:19.573Z,29.23
2022-09-01T16:48:52.846Z,29.21
2022-09-01T16:51:27.083Z,29.04
2022-09-01T16:54:10.816Z,29.30
2022-09-01T16:56:50.103Z,28.98
2022-09-01T16:59:25.459Z,29.00
2022-09-01T17:02:03.585Z,29.50
2022-09-01T17:04:39.978Z,29.29
2022-09-01T17:07:19.938Z,29.69
2022-09-01T17:09:59.989Z,30.06
2022-09-01T17:12:32.151Z,29.80
2022-09-01T17:15:06.938Z,29.22
2022-09-01T17:17:40.832Z,29.60
2022-09-01T17:20:09.647Z,29.15
2022-09-01T17:22:38.947Z,29.35
2022-09-01T17:25:10.229Z,28.72
2022-09-01T17:27:41.634Z,28.53
2022-09-01T17:30:10.342Z,28.33
2022-09-01T17:33:17.406Z,28.28
2022-09-01T17:35:54.069Z,27.64
2022-09-01T17:38:28.688Z,27.88
2022-09-01T17:41:11.990Z,27.22
2022-09-01T17:43:48.101Z,25.88
2022-09-01T17:46:24.638Z,25.59
2022-09-01T17:48:58.089Z,25.74
2022-09-01T17:51:30.552Z,25.84
2022-09-01T17:54:05.460Z,25.20
2022-09-01T17:56:42.442Z,25.24
2022-09-01T17:59:16.543Z,25.03
2022-09-01T18:01:51.890Z,24.87
2022-09-01T18:04:39.046Z,24.50
2022-09-01T18:07:13.801Z,24.43
2022-09-01T18:09:44.659Z,24.16
2022-09-01T18:12:16.238Z,24.09
2022-09-01T18:14:51.795Z,23.52
2022-09-01T18:17:24.631Z,23.29
2022-09-01T18:20:00.384Z,23.71
2022-09-01T18:22:34.021Z,23.48
2022-09-01T18:25:07.082Z,23.54
2022-09-01T18:27:35.363Z,23.13
2022-09-01T18:30:03.442Z,22.86
2022-09-01T18:32:39.515Z,22.60
2022-09-01T18:35:17.835Z,22.82
2022-09-01T18:37:58.103Z,22.83
2022-09-01T18:40:29.442Z,22.71
2022-09-01T18:43:03.607Z,22.30
2022-09-01T18:45:37.021Z,22.39
2022-09-01T18:48:09.722Z,21.55
2022-09-01T18:50:49.283Z,21.94
2022-09-01T18:53:26.175Z,21.65
2022-09-01T18:55:58.960Z,21.52
2022-09-01T18:58:40.476Z,21.50
2022-09-01T19:01:10.607Z,21.68
2022-09-01T19:03:43.704Z,21.88
2022-09-01T19:06:25.861Z,21.80
2022-09-01T19:09:14.024Z,21.86
2022-09-01T19:11:55.853Z,21.88
2022-09-01T19:14:31.179Z,21.71
2022-09-01T19:17:10.631Z,21.03
2022-09-01T19:19:43.702Z,21.19
2022-09-01T19:22:16.298Z,21.46
2022-09-01T19:24:48.798Z,21.23
2022-09-01T19:27:20.119Z,21.14
2022-09-01T19:29:52.479Z,20.52
2022-09-01T19:32:22.586Z,20.91
2022-09-01T19:34:52.883Z,20.91
2022-09-01T19:37:23.051Z,21.02
2022-09-01T19:39:54.217Z,20.81
2022-09-01T19:42:27.063Z,20.90
2022-09-01T19:44:59.495Z,20.72
2022-09-01T19:47:37.907Z,20.55
2022-09-01T19:50:12.305Z,20.40
2022-09-01T19:52:44.709Z,19.95
2022-09-01T19:55:16.513Z,19.62
2022-09-01T19:57:48.446Z,19.31
2022-09-01T20:00:19.863Z,19.27
2022-09-01T20:02:51.038Z,19.19
2022-09-01T20:05:27.743Z,19.07
2022-09-01T20:08:01.147Z,18.94
2022-09-01T20:10:56.796Z,18.65
2022-09-01T20:13:33.547Z,18.51
2022-09-01T20:16:07.817Z,18.62
2022-09-01T20:18:39.380Z,18.42
2022-09-01T20:21:18.914Z,18.57
2022-09-01T20:23:54.428Z,18.74
2022-09-01T20:26:26.948Z,18.55
2022-09-01T20:28:59.051Z,18.57
2022-09-01T20:31:29.752Z,18.62
2022-09-01T20:34:01.464Z,18.43
2022-09-01T20:36:34.628Z,18.39
2022-09-01T20:39:29.429Z,18.14
2022-09-01T20:42:01.038Z,18.12
2022-09-01T20:44:36.313Z,18.43
2022-09-01T20:47:06.226Z,18.34
2022-09-01T20:49:35.278Z,18.30
2022-09-01T20:52:09.419Z,18.65
2022-09-01T20:54:43.070Z,18.38
2022-09-01T20:57:21.858Z,18.67
2022-09-01T20:59:51.410Z,18.33
2022-09-01T21:02:31.712Z,18.36
2022-09-01T21:05:06.267Z,18.48
2022-09-01T21:07:37.927Z,18.23
2022-09-01T21:10:11.819Z,18.26
2022-09-01T21:12:42.903Z,18.27
2022-09-01T21:15:28.508Z,18.23
2022-09-01T21:18:04.487Z,18.22
2022-09-01T21:20:39.503Z,17.76
2022-09-01T21:23:09.428Z,17.65
2022-09-01T21:25:38.752Z,17.71
2022-09-01T21:28:07.222Z,17.32
2022-09-01T21:30:36.922Z,16.75
2022-09-01T21:33:06.230Z,17.12
2022-09-01T21:35:34.231Z,17.56
2022-09-01T21:38:02.171Z,17.38
2022-09-01T21:40:30.171Z,17.77
2022-09-01T21:43:02.118Z,17.31
2022-09-01T21:45:31.550Z,17.14
2022-09-01T21:47:59.519Z,16.88
2022-09-01T21:50:27.731Z,17.31
2022-09-01T21:52:55.732Z,17.62
2022-09-01T21:55:24.871Z,17.69
2022-09-01T21:57:52.992Z,17.66
2022-09-01T22:00:24.658Z,17.47
2022-09-01T22:02:52.803Z,17.70
2022-09-01T22:05:21.267Z,17.46
2022-09-01T22:07:49.292Z,17.58
2022-09-01T22:10:20.363Z,17.50
2022-09-01T22:12:50.130Z,17.24
2022-09-01T22:15:20.576Z,16.97
2022-09-01T22:17:50.279Z,17.13
2022-09-01T22:20:22.304Z,16.86
2022-09-01T22:22:50.861Z,17.07
2022-09-01T22:25:20.215Z,17.20
2022-09-01T22:27:48.353Z,17.31
2022-09-01T22:30:16.877Z,17.32
2022-09-01T22:32:45.391Z,17.01
2022-09-01T22:35:16.127Z,17.03
2022-09-01T22:37:55.283Z,17.08
2022-09-01T22:40:27.367Z,17.20
2022-09-01T22:42:55.377Z,17.37
2022-09-01T22:45:23.508Z,17.16
2022-09-01T22:47:51.486Z,17.15
2022-09-01T22:50:21.055Z,17.20
2022-09-01T22:52:49.109Z,17.23
2022-09-01T22:55:17.827Z,17.23
2022-09-01T22:57:45.778Z,17.23
2022-09-01T23:00:14.673Z,17.03
2022-09-01T23:02:43.899Z,17.03
2022-09-01T23:05:12.440Z,17.02
2022-09-01T23:07:41.771Z,17.01
2022-09-01T23:10:10.727Z,16.96
2022-09-01T23:12:38.867Z,16.93
2022-09-01T23:15:08.426Z,16.70
2022-09-01T23:17:37.950Z,16.77
2022-09-01T23:20:07.590Z,16.82
2022-09-01T23:22:35.790Z,16.83
2022-09-01T23:25:07.467Z,16.66
2022-09-01T23:27:35.531Z,16.34
2022-09-01T23:30:03.538Z,16.15
2022-09-01T23:32:31.523Z,15.77
2022-09-01T23:34:59.754Z,15.93
2022-09-01T23:37:27.826Z,15.90
2022-09-01T23:39:56.950Z,15.71
2022-09-01T23:42:26.638Z,14.77
2022-09-01T23:44:54.567Z,14.50
2022-09-01T23:47:22.549Z,14.97
2022-09-01T23:49:50.607Z,15.41
2022-09-01T23:52:18.577Z,15.77
2022-09-01T23:54:46.516Z,16.07
2022-09-01T23:57:14.478Z,15.93
2022-09-01T23:59:43.795Z,16.12
